sensor_id;sensor_type;location;lat;lon;timestamp;pressure;altitude;pressure_sealevel;temperature;humidity
20612;BME280;10465;42.686;23.364;2023-03-15T00:00:52;94012.72;;;9.79;35.70
20612;BME280;10465;42.686;23.364;2023-03-15T00:03:19;94022.09;;;9.77;36.28
20612;BME280;10465;42.686;23.364;2023-03-15T00:05:46;93990.44;;;9.59;36.21
20612;BME280;10465;42.686;23.364;2023-03-15T00:08:13;93992.19;;;9.55;36.29
20612;BME280;10465;42.686;23.364;2023-03-15T00:10:43;93970.13;;;9.51;35.66
20612;BME280;10465;42.686;23.364;2023-03-15T00:13:10;94004.22;;;9.74;36.10
20612;BME280;10465;42.686;23.364;2023-03-15T00:15:43;94000.53;;;9.66;35.32
20612;BME280;10465;42.686;23.364;2023-03-15T00:18:08;93995.44;;;9.61;35.64
20612;BME280;10465;42.686;23.364;2023-03-15T00:20:36;93969.88;;;9.44;35.71
20612;BME280;10465;42.686;23.364;2023-03-15T00:23:01;94008.59;;;9.70;35.07
20612;BME280;10465;42.686;23.364;2023-03-15T00:25:27;94000.34;;;9.71;35.14
20612;BME280;10465;42.686;23.364;2023-03-15T00:27:52;94003.88;;;9.46;35.39
20612;BME280;10465;42.686;23.364;2023-03-15T00:30:18;94007.59;;;9.06;35.51
20612;BME280;10465;42.686;23.364;2023-03-15T00:32:43;93975.34;;;9.01;35.64
20612;BME280;10465;42.686;23.364;2023-03-15T00:35:10;93985.84;;;9.09;35.85
20612;BME280;10465;42.686;23.364;2023-03-15T00:37:37;93984.56;;;9.24;36.16
20612;BME280;10465;42.686;23.364;2023-03-15T00:40:03;93997.78;;;9.54;35.68
20612;BME280;10465;42.686;23.364;2023-03-15T00:42:30;93990.63;;;9.54;35.71
20612;BME280;10465;42.686;23.364;2023-03-15T00:44:55;93981.47;;;9.52;36.47
20612;BME280;10465;42.686;23.364;2023-03-15T00:47:21;93976.06;;;9.48;38.75
20612;BME280;10465;42.686;23.364;2023-03-15T00:49:47;93919.38;;;9.16;38.22
20612;BME280;10465;42.686;23.364;2023-03-15T00:52:12;93989.81;;;9.62;38.12
20612;BME280;10465;42.686;23.364;2023-03-15T00:54:37;93976.28;;;9.64;36.52
20612;BME280;10465;42.686;23.364;2023-03-15T00:57:03;93951.25;;;9.40;36.71
20612;BME280;10465;42.686;23.364;2023-03-15T00:59:30;93970.78;;;9.48;36.70
20612;BME280;10465;42.686;23.364;2023-03-15T01:02:03;93949.44;;;9.32;36.98
20612;BME280;10465;42.686;23.364;2023-03-15T01:04:28;93955.00;;;9.31;36.70
20612;BME280;10465;42.686;23.364;2023-03-15T01:06:56;93968.63;;;9.41;37.08
20612;BME280;10465;42.686;23.364;2023-03-15T01:09:21;93957.50;;;9.27;37.01
20612;BME280;10465;42.686;23.364;2023-03-15T01:11:47;93938.63;;;9.16;37.62
20612;BME280;10465;42.686;23.364;2023-03-15T01:14:12;93923.53;;;8.87;37.65
20612;BME280;10465;42.686;23.364;2023-03-15T01:16:38;93942.53;;;9.10;37.67
20612;BME280;10465;42.686;23.364;2023-03-15T01:19:03;93924.25;;;8.97;37.59
20612;BME280;10465;42.686;23.364;2023-03-15T01:21:29;93919.28;;;8.95;37.83
20612;BME280;10465;42.686;23.364;2023-03-15T01:23:54;93948.56;;;9.20;38.08
20612;BME280;10465;42.686;23.364;2023-03-15T01:26:20;93915.03;;;9.11;38.23
20612;BME280;10465;42.686;23.364;2023-03-15T01:28:46;93917.72;;;9.03;38.19
20612;BME280;10465;42.686;23.364;2023-03-15T01:31:26;93917.56;;;9.08;37.80
20612;BME280;10465;42.686;23.364;2023-03-15T01:33:52;93899.13;;;8.90;37.65
20612;BME280;10465;42.686;23.364;2023-03-15T01:36:18;93936.47;;;9.10;38.04
20612;BME280;10465;42.686;23.364;2023-03-15T01:38:44;93918.53;;;8.95;37.89
20612;BME280;10465;42.686;23.364;2023-03-15T01:41:10;93932.63;;;8.99;38.46
20612;BME280;10465;42.686;23.364;2023-03-15T01:43:36;93928.81;;;8.79;38.73
20612;BME280;10465;42.686;23.364;2023-03-15T01:46:05;93928.91;;;9.00;38.42
20612;BME280;10465;42.686;23.364;2023-03-15T01:48:41;93923.91;;;9.07;38.84
20612;BME280;10465;42.686;23.364;2023-03-15T01:53:41;93908.25;;;9.02;39.58
20612;BME280;10465;42.686;23.364;2023-03-15T01:56:09;93912.13;;;9.04;39.84
20612;BME280;10465;42.686;23.364;2023-03-15T01:58:35;93913.84;;;9.00;40.05
20612;BME280;10465;42.686;23.364;2023-03-15T02:01:02;93912.94;;;8.96;39.63
20612;BME280;10465;42.686;23.364;2023-03-15T02:03:32;93897.53;;;8.98;39.11
20612;BME280;10465;42.686;23.364;2023-03-15T02:06:01;93876.41;;;8.69;39.54
20612;BME280;10465;42.686;23.364;2023-03-15T02:08:31;93898.22;;;8.86;39.13
20612;BME280;10465;42.686;23.364;2023-03-15T02:10:59;93873.69;;;8.86;38.59
20612;BME280;10465;42.686;23.364;2023-03-15T02:13:28;93892.09;;;9.03;39.83
20612;BME280;10465;42.686;23.364;2023-03-15T02:15:58;93847.97;;;8.74;39.47
20612;BME280;10465;42.686;23.364;2023-03-15T02:18:25;93889.19;;;8.96;38.45
20612;BME280;10465;42.686;23.364;2023-03-15T02:23:37;93872.59;;;8.87;38.26
20612;BME280;10465;42.686;23.364;2023-03-15T02:28:36;93841.88;;;8.53;38.79
20612;BME280;10465;42.686;23.364;2023-03-15T02:31:03;93871.75;;;8.65;38.97
20612;BME280;10465;42.686;23.364;2023-03-15T02:33:32;93870.31;;;8.77;39.50
20612;BME280;10465;42.686;23.364;2023-03-15T02:36:09;93859.19;;;8.71;39.17
20612;BME280;10465;42.686;23.364;2023-03-15T02:38:35;93873.28;;;8.75;38.78
20612;BME280;10465;42.686;23.364;2023-03-15T02:41:01;93873.88;;;8.81;38.43
20612;BME280;10465;42.686;23.364;2023-03-15T02:43:30;93879.97;;;8.73;38.92
20612;BME280;10465;42.686;23.364;2023-03-15T02:45:58;93875.31;;;8.70;38.74
20612;BME280;10465;42.686;23.364;2023-03-15T02:48:24;93873.00;;;8.68;38.76
20612;BME280;10465;42.686;23.364;2023-03-15T02:50:49;93869.22;;;8.78;38.89
20612;BME280;10465;42.686;23.364;2023-03-15T02:53:15;93870.63;;;8.84;40.22
20612;BME280;10465;42.686;23.364;2023-03-15T02:55:40;93850.00;;;8.77;39.53
20612;BME280;10465;42.686;23.364;2023-03-15T02:58:06;93833.38;;;8.47;40.08
20612;BME280;10465;42.686;23.364;2023-03-15T03:00:31;93863.25;;;8.60;39.74
20612;BME280;10465;42.686;23.364;2023-03-15T03:02:57;93838.50;;;8.35;39.30
20612;BME280;10465;42.686;23.364;2023-03-15T03:05:22;93825.97;;;8.23;39.04
20612;BME280;10465;42.686;23.364;2023-03-15T03:07:48;93851.53;;;8.40;39.39
20612;BME280;10465;42.686;23.364;2023-03-15T03:10:16;93828.47;;;8.11;39.16
20612;BME280;10465;42.686;23.364;2023-03-15T03:12:42;93833.28;;;8.09;39.64
20612;BME280;10465;42.686;23.364;2023-03-15T03:15:08;93823.06;;;8.07;39.53
20612;BME280;10465;42.686;23.364;2023-03-15T03:17:34;93809.72;;;8.04;39.63
20612;BME280;10465;42.686;23.364;2023-03-15T03:20:09;93829.06;;;8.16;40.00
20612;BME280;10465;42.686;23.364;2023-03-15T03:22:36;93795.50;;;7.87;40.28
20612;BME280;10465;42.686;23.364;2023-03-15T03:25:02;93824.78;;;8.03;40.11
20612;BME280;10465;42.686;23.364;2023-03-15T03:27:28;93818.56;;;7.99;40.13
20612;BME280;10465;42.686;23.364;2023-03-15T03:29:53;93807.72;;;7.92;40.29
20612;BME280;10465;42.686;23.364;2023-03-15T03:32:19;93763.63;;;7.63;39.92
20612;BME280;10465;42.686;23.364;2023-03-15T03:34:45;93822.59;;;8.05;40.28
20612;BME280;10465;42.686;23.364;2023-03-15T03:37:16;93801.50;;;8.05;40.32
20612;BME280;10465;42.686;23.364;2023-03-15T03:39:42;93820.50;;;8.28;40.30
20612;BME280;10465;42.686;23.364;2023-03-15T03:42:07;93818.78;;;8.32;40.39
20612;BME280;10465;42.686;23.364;2023-03-15T03:44:33;93807.78;;;8.30;40.29
20612;BME280;10465;42.686;23.364;2023-03-15T03:46:58;93810.28;;;8.18;40.66
20612;BME280;10465;42.686;23.364;2023-03-15T03:49:24;93818.50;;;8.25;40.72
20612;BME280;10465;42.686;23.364;2023-03-15T03:51:49;93781.19;;;8.06;41.14
20612;BME280;10465;42.686;23.364;2023-03-15T03:54:15;93805.47;;;8.29;41.06
20612;BME280;10465;42.686;23.364;2023-03-15T03:56:40;93804.53;;;8.25;41.39
20612;BME280;10465;42.686;23.364;2023-03-15T03:59:06;93813.72;;;8.10;41.41
20612;BME280;10465;42.686;23.364;2023-03-15T04:01:31;93787.56;;;7.96;41.29
20612;BME280;10465;42.686;23.364;2023-03-15T04:03:57;93780.25;;;8.02;40.79
20612;BME280;10465;42.686;23.364;2023-03-15T04:06:23;93789.88;;;8.06;41.57
20612;BME280;10465;42.686;23.364;2023-03-15T04:08:48;93783.06;;;7.97;41.47
20612;BME280;10465;42.686;23.364;2023-03-15T04:11:14;93798.06;;;8.13;41.81
20612;BME280;10465;42.686;23.364;2023-03-15T04:13:42;93792.63;;;8.10;42.04
20612;BME280;10465;42.686;23.364;2023-03-15T04:16:08;93798.84;;;8.14;42.26
20612;BME280;10465;42.686;23.364;2023-03-15T04:18:33;93791.72;;;8.14;42.11
20612;BME280;10465;42.686;23.364;2023-03-15T04:20:59;93790.66;;;8.07;42.67
20612;BME280;10465;42.686;23.364;2023-03-15T04:23:24;93787.38;;;8.18;42.27
20612;BME280;10465;42.686;23.364;2023-03-15T04:25:51;93789.22;;;8.18;42.23
20612;BME280;10465;42.686;23.364;2023-03-15T04:28:17;93774.84;;;8.07;42.50
20612;BME280;10465;42.686;23.364;2023-03-15T04:30:44;93791.28;;;8.04;42.67
20612;BME280;10465;42.686;23.364;2023-03-15T04:33:09;93752.72;;;7.82;42.51
20612;BME280;10465;42.686;23.364;2023-03-15T04:35:35;93785.22;;;8.12;42.28
20612;BME280;10465;42.686;23.364;2023-03-15T04:38:03;93784.84;;;8.22;42.50
20612;BME280;10465;42.686;23.364;2023-03-15T04:40:30;93755.34;;;7.99;43.12
20612;BME280;10465;42.686;23.364;2023-03-15T04:43:00;93774.69;;;8.03;43.68
20612;BME280;10465;42.686;23.364;2023-03-15T04:45:26;93782.56;;;8.12;43.64
20612;BME280;10465;42.686;23.364;2023-03-15T04:47:53;93764.94;;;8.04;43.20
20612;BME280;10465;42.686;23.364;2023-03-15T04:50:20;93765.88;;;7.99;43.04
20612;BME280;10465;42.686;23.364;2023-03-15T04:52:46;93789.06;;;8.23;42.80
20612;BME280;10465;42.686;23.364;2023-03-15T04:55:13;93786.41;;;8.23;42.83
20612;BME280;10465;42.686;23.364;2023-03-15T04:57:38;93777.63;;;8.10;43.38
20612;BME280;10465;42.686;23.364;2023-03-15T05:00:05;93788.28;;;8.23;42.96
20612;BME280;10465;42.686;23.364;2023-03-15T05:02:37;93763.03;;;8.13;43.03
20612;BME280;10465;42.686;23.364;2023-03-15T05:05:06;93781.19;;;8.14;43.29
20612;BME280;10465;42.686;23.364;2023-03-15T05:07:34;93768.94;;;8.01;43.70
20612;BME280;10465;42.686;23.364;2023-03-15T05:10:00;93788.63;;;8.12;43.65
20612;BME280;10465;42.686;23.364;2023-03-15T05:12:26;93794.84;;;8.08;43.80
20612;BME280;10465;42.686;23.364;2023-03-15T05:14:52;93789.72;;;8.11;44.53
20612;BME280;10465;42.686;23.364;2023-03-15T05:17:17;93755.22;;;7.87;44.35
20612;BME280;10465;42.686;23.364;2023-03-15T05:19:43;93785.34;;;8.15;43.94
20612;BME280;10465;42.686;23.364;2023-03-15T05:22:08;93792.94;;;8.17;43.86
20612;BME280;10465;42.686;23.364;2023-03-15T05:24:34;93767.13;;;7.93;44.35
20612;BME280;10465;42.686;23.364;2023-03-15T05:26:59;93785.53;;;8.02;44.84
20612;BME280;10465;42.686;23.364;2023-03-15T05:29:25;93773.03;;;7.90;44.51
20612;BME280;10465;42.686;23.364;2023-03-15T05:31:50;93787.88;;;8.03;43.49
20612;BME280;10465;42.686;23.364;2023-03-15T05:34:18;93724.84;;;7.81;42.40
20612;BME280;10465;42.686;23.364;2023-03-15T05:36:44;93748.03;;;8.05;42.43
20612;BME280;10465;42.686;23.364;2023-03-15T05:39:09;93763.75;;;8.22;42.02
20612;BME280;10465;42.686;23.364;2023-03-15T05:41:36;93745.53;;;8.08;41.68
20612;BME280;10465;42.686;23.364;2023-03-15T05:44:02;93778.47;;;8.40;41.12
20612;BME280;10465;42.686;23.364;2023-03-15T05:46:28;93747.31;;;8.25;40.67
20612;BME280;10465;42.686;23.364;2023-03-15T05:48:53;93776.75;;;8.45;40.57
20612;BME280;10465;42.686;23.364;2023-03-15T05:51:19;93737.09;;;8.24;40.45
20612;BME280;10465;42.686;23.364;2023-03-15T05:53:44;93773.16;;;8.49;40.81
20612;BME280;10465;42.686;23.364;2023-03-15T05:56:10;93766.34;;;8.48;40.60
20612;BME280;10465;42.686;23.364;2023-03-15T05:58:35;93763.88;;;8.43;40.52
20612;BME280;10465;42.686;23.364;2023-03-15T06:01:02;93753.66;;;8.33;40.54
20612;BME280;10465;42.686;23.364;2023-03-15T06:03:30;93766.22;;;8.36;40.79
20612;BME280;10465;42.686;23.364;2023-03-15T06:05:56;93756.91;;;8.30;41.11
20612;BME280;10465;42.686;23.364;2023-03-15T06:08:23;93774.28;;;8.39;41.91
20612;BME280;10465;42.686;23.364;2023-03-15T06:10:48;93779.72;;;8.43;41.84
20612;BME280;10465;42.686;23.364;2023-03-15T06:13:14;93763.09;;;8.34;42.42
20612;BME280;10465;42.686;23.364;2023-03-15T06:15:39;93744.19;;;8.32;41.95
20612;BME280;10465;42.686;23.364;2023-03-15T06:18:05;93734.00;;;8.22;42.39
20612;BME280;10465;42.686;23.364;2023-03-15T06:20:30;93771.41;;;8.53;43.32
20612;BME280;10465;42.686;23.364;2023-03-15T06:22:56;93761.88;;;8.31;43.23
20612;BME280;10465;42.686;23.364;2023-03-15T06:25:22;93784.31;;;8.46;43.30
20612;BME280;10465;42.686;23.364;2023-03-15T06:27:48;93773.25;;;8.61;43.40
20612;BME280;10465;42.686;23.364;2023-03-15T06:30:14;93783.28;;;8.98;42.65
20612;BME280;10465;42.686;23.364;2023-03-15T06:32:39;93772.09;;;9.01;42.59
20612;BME280;10465;42.686;23.364;2023-03-15T06:35:05;93756.13;;;8.97;42.81
20612;BME280;10465;42.686;23.364;2023-03-15T06:37:30;93700.28;;;8.65;43.02
20612;BME280;10465;42.686;23.364;2023-03-15T06:39:56;93756.88;;;9.19;43.85
20612;BME280;10465;42.686;23.364;2023-03-15T06:42:22;93763.06;;;9.44;43.39
20612;BME280;10465;42.686;23.364;2023-03-15T06:44:47;93715.38;;;9.28;42.73
20612;BME280;10465;42.686;23.364;2023-03-15T06:47:13;93754.50;;;9.80;42.34
20612;BME280;10465;42.686;23.364;2023-03-15T06:49:38;93690.13;;;9.51;42.81
20612;BME280;10465;42.686;23.364;2023-03-15T06:52:05;93758.31;;;10.03;41.51
20612;BME280;10465;42.686;23.364;2023-03-15T06:54:31;93737.16;;;10.03;41.61
20612;BME280;10465;42.686;23.364;2023-03-15T06:56:57;93771.78;;;10.23;41.28
20612;BME280;10465;42.686;23.364;2023-03-15T06:59:22;93755.78;;;10.19;41.25
20612;BME280;10465;42.686;23.364;2023-03-15T07:01:48;93754.19;;;10.27;41.58
20612;BME280;10465;42.686;23.364;2023-03-15T07:04:13;93747.91;;;10.44;41.55
20612;BME280;10465;42.686;23.364;2023-03-15T07:06:40;93743.84;;;10.46;41.21
20612;BME280;10465;42.686;23.364;2023-03-15T07:09:05;93749.69;;;10.52;41.29
20612;BME280;10465;42.686;23.364;2023-03-15T07:11:31;93737.78;;;10.46;41.80
20612;BME280;10465;42.686;23.364;2023-03-15T07:13:57;93752.31;;;10.64;41.15
20612;BME280;10465;42.686;23.364;2023-03-15T07:16:23;93753.41;;;10.75;41.06
20612;BME280;10465;42.686;23.364;2023-03-15T07:18:48;93691.25;;;10.45;40.79
20612;BME280;10465;42.686;23.364;2023-03-15T07:21:14;93739.16;;;10.92;41.24
20612;BME280;10465;42.686;23.364;2023-03-15T07:23:40;93735.50;;;10.97;40.01
20612;BME280;10465;42.686;23.364;2023-03-15T07:26:05;93725.38;;;10.99;39.66
20612;BME280;10465;42.686;23.364;2023-03-15T07:28:31;93752.03;;;11.18;40.52
20612;BME280;10465;42.686;23.364;2023-03-15T07:30:58;93746.91;;;11.25;40.03
20612;BME280;10465;42.686;23.364;2023-03-15T07:33:25;93745.59;;;11.31;39.83
20612;BME280;10465;42.686;23.364;2023-03-15T07:35:52;93699.94;;;10.82;38.93
20612;BME280;10465;42.686;23.364;2023-03-15T07:38:19;93745.56;;;11.03;39.70
20612;BME280;10465;42.686;23.364;2023-03-15T07:40:45;93746.06;;;11.21;39.91
20612;BME280;10465;42.686;23.364;2023-03-15T07:43:10;93742.28;;;11.34;39.79
20612;BME280;10465;42.686;23.364;2023-03-15T07:45:36;93716.00;;;11.57;38.68
20612;BME280;10465;42.686;23.364;2023-03-15T07:48:02;93743.91;;;12.11;37.72
20612;BME280;10465;42.686;23.364;2023-03-15T07:50:27;93712.34;;;12.22;37.09
20612;BME280;10465;42.686;23.364;2023-03-15T07:52:53;93745.38;;;12.72;37.01
20612;BME280;10465;42.686;23.364;2023-03-15T07:55:18;93753.72;;;13.05;36.46
20612;BME280;10465;42.686;23.364;2023-03-15T07:57:44;93738.78;;;13.17;36.15
20612;BME280;10465;42.686;23.364;2023-03-15T08:00:10;93740.16;;;13.10;36.18
20612;BME280;10465;42.686;23.364;2023-03-15T08:02:38;93737.97;;;13.16;35.95
20612;BME280;10465;42.686;23.364;2023-03-15T08:05:03;93739.09;;;13.15;36.32
20612;BME280;10465;42.686;23.364;2023-03-15T08:07:29;93733.34;;;12.94;36.44
20612;BME280;10465;42.686;23.364;2023-03-15T08:09:55;93730.97;;;12.89;36.51
20612;BME280;10465;42.686;23.364;2023-03-15T08:12:25;93681.75;;;12.59;36.85
20612;BME280;10465;42.686;23.364;2023-03-15T08:14:50;93707.38;;;12.87;36.94
20612;BME280;10465;42.686;23.364;2023-03-15T08:17:17;93721.34;;;13.19;36.38
20612;BME280;10465;42.686;23.364;2023-03-15T08:19:43;93706.66;;;13.06;37.27
20612;BME280;10465;42.686;23.364;2023-03-15T08:22:08;93688.13;;;13.09;36.34
20612;BME280;10465;42.686;23.364;2023-03-15T08:24:34;93683.75;;;13.36;36.73
20612;BME280;10465;42.686;23.364;2023-03-15T08:27:00;93695.66;;;13.85;35.53
20612;BME280;10465;42.686;23.364;2023-03-15T08:29:26;93705.19;;;14.09;35.27
20612;BME280;10465;42.686;23.364;2023-03-15T08:31:52;93702.78;;;14.23;33.98
20612;BME280;10465;42.686;23.364;2023-03-15T08:34:17;93681.13;;;14.25;34.12
20612;BME280;10465;42.686;23.364;2023-03-15T08:36:45;93699.56;;;14.60;33.63
20612;BME280;10465;42.686;23.364;2023-03-15T08:39:11;93685.97;;;14.42;33.94
20612;BME280;10465;42.686;23.364;2023-03-15T08:41:37;93695.19;;;14.25;33.88
20612;BME280;10465;42.686;23.364;2023-03-15T08:44:02;93675.09;;;14.05;33.95
20612;BME280;10465;42.686;23.364;2023-03-15T08:46:28;93698.41;;;14.34;33.88
20612;BME280;10465;42.686;23.364;2023-03-15T08:48:54;93668.22;;;14.50;33.64
20612;BME280;10465;42.686;23.364;2023-03-15T08:51:20;93691.56;;;14.87;33.45
20612;BME280;10465;42.686;23.364;2023-03-15T08:53:46;93681.38;;;14.66;33.65
20612;BME280;10465;42.686;23.364;2023-03-15T08:56:11;93698.97;;;14.47;33.80
20612;BME280;10465;42.686;23.364;2023-03-15T08:58:36;93700.47;;;14.22;34.04
20612;BME280;10465;42.686;23.364;2023-03-15T09:01:02;93680.53;;;13.89;33.93
20612;BME280;10465;42.686;23.364;2023-03-15T09:03:29;93698.69;;;13.83;34.23
20612;BME280;10465;42.686;23.364;2023-03-15T09:05:57;93696.63;;;13.96;34.87
20612;BME280;10465;42.686;23.364;2023-03-15T09:08:24;93695.75;;;14.12;34.31
20612;BME280;10465;42.686;23.364;2023-03-15T09:10:56;93708.25;;;14.34;33.97
20612;BME280;10465;42.686;23.364;2023-03-15T09:13:23;93707.28;;;14.19;33.56
20612;BME280;10465;42.686;23.364;2023-03-15T09:15:50;93708.25;;;13.88;33.74
20612;BME280;10465;42.686;23.364;2023-03-15T09:18:16;93654.03;;;13.31;34.38
20612;BME280;10465;42.686;23.364;2023-03-15T09:20:42;93698.16;;;13.55;34.81
20612;BME280;10465;42.686;23.364;2023-03-15T09:23:08;93703.69;;;13.46;34.96
20612;BME280;10465;42.686;23.364;2023-03-15T09:25:33;93699.84;;;13.44;35.56
20612;BME280;10465;42.686;23.364;2023-03-15T09:28:01;93680.03;;;13.22;35.34
20612;BME280;10465;42.686;23.364;2023-03-15T09:30:27;93677.91;;;13.11;35.58
20612;BME280;10465;42.686;23.364;2023-03-15T09:32:53;93688.78;;;13.22;35.65
20612;BME280;10465;42.686;23.364;2023-03-15T09:35:19;93703.50;;;13.20;35.54
20612;BME280;10465;42.686;23.364;2023-03-15T09:37:46;93679.53;;;13.16;35.76
20612;BME280;10465;42.686;23.364;2023-03-15T09:40:32;93697.09;;;13.01;36.04
20612;BME280;10465;42.686;23.364;2023-03-15T09:48:29;93671.81;;;13.69;35.16
20612;BME280;10465;42.686;23.364;2023-03-15T09:51:01;93678.25;;;13.45;35.13
20612;BME280;10465;42.686;23.364;2023-03-15T09:53:38;93618.44;;;12.97;35.03
20612;BME280;10465;42.686;23.364;2023-03-15T09:56:29;93672.72;;;13.34;35.35
20612;BME280;10465;42.686;23.364;2023-03-15T09:58:58;93670.19;;;13.42;35.89
20612;BME280;10465;42.686;23.364;2023-03-15T10:01:31;93660.19;;;13.35;35.67
20612;BME280;10465;42.686;23.364;2023-03-15T10:04:08;93663.75;;;13.43;36.51
20612;BME280;10465;42.686;23.364;2023-03-15T10:06:37;93677.41;;;13.41;36.13
20612;BME280;10465;42.686;23.364;2023-03-15T10:09:14;93680.22;;;13.29;36.02
20612;BME280;10465;42.686;23.364;2023-03-15T10:11:53;93676.94;;;13.20;36.32
20612;BME280;10465;42.686;23.364;2023-03-15T10:17:14;93665.22;;;13.21;36.10
20612;BME280;10465;42.686;23.364;2023-03-15T10:25:01;93678.97;;;13.65;35.70
20612;BME280;10465;42.686;23.364;2023-03-15T10:30:34;93670.03;;;13.54;35.71
20612;BME280;10465;42.686;23.364;2023-03-15T10:33:05;93668.16;;;13.54;35.82
20612;BME280;10465;42.686;23.364;2023-03-15T10:35:37;93628.31;;;13.35;35.45
20612;BME280;10465;42.686;23.364;2023-03-15T10:38:13;93639.41;;;13.41;35.72
20612;BME280;10465;42.686;23.364;2023-03-15T10:40:46;93669.84;;;13.43;36.15
20612;BME280;10465;42.686;23.364;2023-03-15T10:43:23;93670.47;;;13.36;35.71
20612;BME280;10465;42.686;23.364;2023-03-15T10:48:31;93662.16;;;13.38;36.14
20612;BME280;10465;42.686;23.364;2023-03-15T10:51:02;93655.91;;;13.50;36.14
20612;BME280;10465;42.686;23.364;2023-03-15T10:53:29;93632.25;;;13.45;35.40
20612;BME280;10465;42.686;23.364;2023-03-15T10:56:06;93652.34;;;13.62;35.81
20612;BME280;10465;42.686;23.364;2023-03-15T10:58:45;93640.22;;;13.45;35.87
20612;BME280;10465;42.686;23.364;2023-03-15T11:01:21;93668.44;;;13.49;35.47
20612;BME280;10465;42.686;23.364;2023-03-15T11:06:39;93647.81;;;13.23;35.79
20612;BME280;10465;42.686;23.364;2023-03-15T11:09:15;93662.38;;;13.29;35.82
20612;BME280;10465;42.686;23.364;2023-03-15T11:12:00;93650.25;;;13.32;35.96
20612;BME280;10465;42.686;23.364;2023-03-15T11:14:39;93641.31;;;13.21;36.56
20612;BME280;10465;42.686;23.364;2023-03-15T11:17:08;93652.06;;;13.28;36.01
20612;BME280;10465;42.686;23.364;2023-03-15T11:19:50;93644.25;;;13.35;36.09
20612;BME280;10465;42.686;23.364;2023-03-15T11:22:16;93641.66;;;13.39;36.14
20612;BME280;10465;42.686;23.364;2023-03-15T11:24:41;93651.38;;;13.50;35.94
20612;BME280;10465;42.686;23.364;2023-03-15T11:27:12;93634.28;;;13.51;35.88
20612;BME280;10465;42.686;23.364;2023-03-15T11:29:39;93646.28;;;13.65;36.19
20612;BME280;10465;42.686;23.364;2023-03-15T11:32:33;93603.25;;;13.36;36.13
20612;BME280;10465;42.686;23.364;2023-03-15T11:35:03;93643.44;;;13.73;36.33
20612;BME280;10465;42.686;23.364;2023-03-15T11:42:54;93613.09;;;13.55;35.51
20612;BME280;10465;42.686;23.364;2023-03-15T11:45:42;93638.09;;;13.73;35.47
20612;BME280;10465;42.686;23.364;2023-03-15T11:50:53;93639.09;;;13.88;35.37
20612;BME280;10465;42.686;23.364;2023-03-15T11:53:20;93621.91;;;13.59;35.35
20612;BME280;10465;42.686;23.364;2023-03-15T11:55:49;93620.69;;;13.56;35.69
20612;BME280;10465;42.686;23.364;2023-03-15T11:58:40;93633.06;;;13.68;35.80
20612;BME280;10465;42.686;23.364;2023-03-15T12:01:10;93582.34;;;13.15;35.53
20612;BME280;10465;42.686;23.364;2023-03-15T12:03:40;93629.28;;;13.46;35.85
20612;BME280;10465;42.686;23.364;2023-03-15T12:08:49;93625.78;;;13.65;35.70
20612;BME280;10465;42.686;23.364;2023-03-15T12:14:02;93575.94;;;13.58;35.54
20612;BME280;10465;42.686;23.364;2023-03-15T12:16:30;93605.13;;;13.78;35.50
20612;BME280;10465;42.686;23.364;2023-03-15T12:19:01;93608.00;;;13.92;35.10
20612;BME280;10465;42.686;23.364;2023-03-15T12:21:55;93593.31;;;13.75;35.43
20612;BME280;10465;42.686;23.364;2023-03-15T12:24:25;93603.22;;;13.55;35.88
20612;BME280;10465;42.686;23.364;2023-03-15T12:26:58;93600.50;;;13.29;35.83
20612;BME280;10465;42.686;23.364;2023-03-15T12:29:27;93604.16;;;13.44;36.19
20612;BME280;10465;42.686;23.364;2023-03-15T12:31:55;93599.78;;;13.55;36.09
20612;BME280;10465;42.686;23.364;2023-03-15T12:34:25;93596.06;;;13.59;36.02
20612;BME280;10465;42.686;23.364;2023-03-15T12:36:58;93595.59;;;13.54;36.02
20612;BME280;10465;42.686;23.364;2023-03-15T12:39:46;93592.22;;;13.57;36.05
20612;BME280;10465;42.686;23.364;2023-03-15T12:50:48;93581.50;;;13.50;36.98
20612;BME280;10465;42.686;23.364;2023-03-15T12:55:51;93589.53;;;13.53;36.95
20612;BME280;10465;42.686;23.364;2023-03-15T12:58:19;93589.34;;;13.66;36.07
20612;BME280;10465;42.686;23.364;2023-03-15T13:00:46;93586.13;;;13.56;36.13
20612;BME280;10465;42.686;23.364;2023-03-15T13:03:24;93575.75;;;13.48;38.05
20612;BME280;10465;42.686;23.364;2023-03-15T13:06:25;93586.06;;;13.53;40.26
20612;BME280;10465;42.686;23.364;2023-03-15T13:08:57;93587.97;;;13.52;41.25
20612;BME280;10465;42.686;23.364;2023-03-15T13:19:25;93583.22;;;13.62;41.13
20612;BME280;10465;42.686;23.364;2023-03-15T13:22:29;93581.41;;;13.69;40.86
20612;BME280;10465;42.686;23.364;2023-03-15T13:25:13;93579.19;;;13.71;40.39
20612;BME280;10465;42.686;23.364;2023-03-15T13:30:38;93592.66;;;13.82;39.77
20612;BME280;10465;42.686;23.364;2023-03-15T13:35:39;93584.03;;;13.66;39.72
20612;BME280;10465;42.686;23.364;2023-03-15T13:38:11;93593.88;;;13.65;39.98
20612;BME280;10465;42.686;23.364;2023-03-15T13:40:46;93598.50;;;13.68;39.92
20612;BME280;10465;42.686;23.364;2023-03-15T13:43:11;93598.44;;;13.65;40.46
20612;BME280;10465;42.686;23.364;2023-03-15T13:45:41;93589.00;;;13.67;40.28
20612;BME280;10465;42.686;23.364;2023-03-15T13:48:06;93577.53;;;13.63;40.99
20612;BME280;10465;42.686;23.364;2023-03-15T13:50:32;93565.00;;;13.64;40.54
20612;BME280;10465;42.686;23.364;2023-03-15T13:52:57;93524.41;;;13.44;40.63
20612;BME280;10465;42.686;23.364;2023-03-15T13:55:23;93593.88;;;13.88;39.81
20612;BME280;10465;42.686;23.364;2023-03-15T13:57:53;93566.94;;;13.67;39.29
20612;BME280;10465;42.686;23.364;2023-03-15T14:00:20;93589.22;;;13.81;39.76
20612;BME280;10465;42.686;23.364;2023-03-15T14:02:57;93601.97;;;13.95;39.81
20612;BME280;10465;42.686;23.364;2023-03-15T14:05:28;93547.28;;;13.48;39.65
20612;BME280;10465;42.686;23.364;2023-03-15T14:08:01;93565.53;;;13.50;39.69